sensor_id;sensor_type;location;lat;lon;timestamp;P1;durP1;ratioP1;P2;durP2;ratioP2
39020;SDS011;25188;51.958;5.842;2023-10-31T00:02:00;1.85;;;0.45;;
39020;SDS011;25188;51.958;5.842;2023-10-31T00:04:26;1.48;;;0.45;;
39020;SDS011;25188;51.958;5.842;2023-10-31T00:06:52;1.83;;;0.70;;
39020;SDS011;25188;51.958;5.842;2023-10-31T00:09:17;4.45;;;1.05;;
39020;SDS011;25188;51.958;5.842;2023-10-31T00:11:43;2.55;;;0.40;;
39020;SDS011;25188;51.958;5.842;2023-10-31T00:14:09;3.25;;;0.80;;
39020;SDS011;25188;51.958;5.842;2023-10-31T00:16:35;5.45;;;0.50;;
39020;SDS011;25188;51.958;5.842;2023-10-31T00:19:00;2.17;;;0.60;;
39020;SDS011;25188;51.958;5.842;2023-10-31T00:21:26;1.65;;;0.50;;
39020;SDS011;25188;51.958;5.842;2023-10-31T00:23:52;1.65;;;0.40;;
39020;SDS011;25188;51.958;5.842;2023-10-31T00:26:18;3.65;;;0.60;;
39020;SDS011;25188;51.958;5.842;2023-10-31T00:28:44;3.35;;;0.57;;
39020;SDS011;25188;51.958;5.842;2023-10-31T00:31:09;2.63;;;0.60;;
39020;SDS011;25188;51.958;5.842;2023-10-31T00:33:36;3.55;;;0.63;;
39020;SDS011;25188;51.958;5.842;2023-10-31T00:36:02;2.58;;;0.70;;
39020;SDS011;25188;51.958;5.842;2023-10-31T00:38:28;5.40;;;0.90;;
39020;SDS011;25188;51.958;5.842;2023-10-31T00:40:54;4.10;;;0.70;;
39020;SDS011;25188;51.958;5.842;2023-10-31T00:43:20;4.15;;;1.00;;
39020;SDS011;25188;51.958;5.842;2023-10-31T00:45:45;4.07;;;1.00;;
39020;SDS011;25188;51.958;5.842;2023-10-31T00:48:11;4.88;;;0.93;;
39020;SDS011;25188;51.958;5.842;2023-10-31T00:50:37;3.80;;;1.10;;
39020;SDS011;25188;51.958;5.842;2023-10-31T00:53:02;4.28;;;0.80;;
39020;SDS011;25188;51.958;5.842;2023-10-31T00:55:28;6.68;;;1.13;;
39020;SDS011;25188;51.958;5.842;2023-10-31T00:57:54;3.35;;;0.85;;
39020;SDS011;25188;51.958;5.842;2023-10-31T01:00:19;4.28;;;1.10;;
39020;SDS011;25188;51.958;5.842;2023-10-31T01:02:45;4.38;;;1.40;;
39020;SDS011;25188;51.958;5.842;2023-10-31T01:05:11;4.93;;;1.38;;
39020;SDS011;25188;51.958;5.842;2023-10-31T01:07:37;3.95;;;1.10;;
39020;SDS011;25188;51.958;5.842;2023-10-31T01:10:03;4.38;;;1.98;;
39020;SDS011;25188;51.958;5.842;2023-10-31T01:12:29;8.38;;;2.90;;
39020;SDS011;25188;51.958;5.842;2023-10-31T01:14:56;11.45;;;3.72;;
39020;SDS011;25188;51.958;5.842;2023-10-31T01:17:21;11.85;;;4.88;;
39020;SDS011;25188;51.958;5.842;2023-10-31T01:19:47;12.38;;;6.13;;
39020;SDS011;25188;51.958;5.842;2023-10-31T01:22:13;14.63;;;7.18;;
39020;SDS011;25188;51.958;5.842;2023-10-31T01:24:38;16.02;;;7.07;;
39020;SDS011;25188;51.958;5.842;2023-10-31T01:27:04;17.98;;;8.70;;
39020;SDS011;25188;51.958;5.842;2023-10-31T01:29:30;16.75;;;9.98;;
39020;SDS011;25188;51.958;5.842;2023-10-31T01:31:55;17.30;;;10.35;;
39020;SDS011;25188;51.958;5.842;2023-10-31T01:34:21;20.00;;;10.05;;
39020;SDS011;25188;51.958;5.842;2023-10-31T01:36:47;14.30;;;9.57;;
39020;SDS011;25188;51.958;5.842;2023-10-31T01:39:12;21.10;;;10.00;;
39020;SDS011;25188;51.958;5.842;2023-10-31T01:41:40;17.80;;;9.57;;
39020;SDS011;25188;51.958;5.842;2023-10-31T01:44:07;18.05;;;9.55;;
39020;SDS011;25188;51.958;5.842;2023-10-31T01:46:32;18.35;;;9.35;;
39020;SDS011;25188;51.958;5.842;2023-10-31T01:48:58;17.70;;;9.80;;
39020;SDS011;25188;51.958;5.842;2023-10-31T01:51:24;19.85;;;11.05;;
39020;SDS011;25188;51.958;5.842;2023-10-31T01:53:51;22.20;;;12.13;;
39020;SDS011;25188;51.958;5.842;2023-10-31T01:56:17;20.13;;;11.65;;
39020;SDS011;25188;51.958;5.842;2023-10-31T01:58:45;19.80;;;10.85;;
39020;SDS011;25188;51.958;5.842;2023-10-31T02:01:12;19.67;;;9.82;;
39020;SDS011;25188;51.958;5.842;2023-10-31T02:03:38;16.67;;;9.32;;
39020;SDS011;25188;51.958;5.842;2023-10-31T02:06:04;19.15;;;10.50;;
39020;SDS011;25188;51.958;5.842;2023-10-31T02:08:30;21.67;;;11.00;;
39020;SDS011;25188;51.958;5.842;2023-10-31T02:10:55;19.13;;;12.32;;
39020;SDS011;25188;51.958;5.842;2023-10-31T02:13:21;25.15;;;13.07;;
39020;SDS011;25188;51.958;5.842;2023-10-31T02:15:47;21.27;;;11.85;;
39020;SDS011;25188;51.958;5.842;2023-10-31T02:18:13;18.67;;;10.23;;
39020;SDS011;25188;51.958;5.842;2023-10-31T02:20:39;16.77;;;10.25;;
39020;SDS011;25188;51.958;5.842;2023-10-31T02:23:05;18.33;;;9.93;;
39020;SDS011;25188;51.958;5.842;2023-10-31T02:25:31;12.57;;;6.90;;
39020;SDS011;25188;51.958;5.842;2023-10-31T02:27:56;15.75;;;8.13;;
39020;SDS011;25188;51.958;5.842;2023-10-31T02:30:23;12.30;;;7.05;;
39020;SDS011;25188;51.958;5.842;2023-10-31T02:32:49;12.00;;;6.97;;
39020;SDS011;25188;51.958;5.842;2023-10-31T02:35:18;17.50;;;7.75;;
39020;SDS011;25188;51.958;5.842;2023-10-31T02:37:44;15.13;;;7.93;;
39020;SDS011;25188;51.958;5.842;2023-10-31T02:40:11;16.20;;;8.02;;
39020;SDS011;25188;51.958;5.842;2023-10-31T02:42:37;15.07;;;7.55;;
39020;SDS011;25188;51.958;5.842;2023-10-31T02:45:03;20.50;;;9.45;;
39020;SDS011;25188;51.958;5.842;2023-10-31T02:47:29;15.93;;;8.90;;
39020;SDS011;25188;51.958;5.842;2023-10-31T02:49:55;18.33;;;9.40;;
39020;SDS011;25188;51.958;5.842;2023-10-31T02:52:21;16.92;;;10.07;;
39020;SDS011;25188;51.958;5.842;2023-10-31T02:54:46;21.50;;;10.13;;
39020;SDS011;25188;51.958;5.842;2023-10-31T02:57:12;15.85;;;9.25;;
39020;SDS011;25188;51.958;5.842;2023-10-31T02:59:38;18.33;;;10.15;;
39020;SDS011;25188;51.958;5.842;2023-10-31T03:02:04;16.88;;;8.77;;
39020;SDS011;25188;51.958;5.842;2023-10-31T03:04:29;17.45;;;10.10;;
39020;SDS011;25188;51.958;5.842;2023-10-31T03:06:55;16.52;;;9.38;;
39020;SDS011;25188;51.958;5.842;2023-10-31T03:09:21;16.48;;;9.45;;
39020;SDS011;25188;51.958;5.842;2023-10-31T03:11:46;16.45;;;9.55;;
39020;SDS011;25188;51.958;5.842;2023-10-31T03:14:12;19.05;;;11.27;;
39020;SDS011;25188;51.958;5.842;2023-10-31T03:16:38;17.60;;;9.65;;
39020;SDS011;25188;51.958;5.842;2023-10-31T03:19:04;19.95;;;12.10;;
39020;SDS011;25188;51.958;5.842;2023-10-31T03:21:30;19.75;;;12.20;;
39020;SDS011;25188;51.958;5.842;2023-10-31T03:23:56;25.48;;;13.82;;
39020;SDS011;25188;51.958;5.842;2023-10-31T03:26:22;18.70;;;12.32;;
39020;SDS011;25188;51.958;5.842;2023-10-31T03:28:47;23.83;;;14.40;;
39020;SDS011;25188;51.958;5.842;2023-10-31T03:31:13;22.70;;;14.10;;
39020;SDS011;25188;51.958;5.842;2023-10-31T03:33:39;24.33;;;14.40;;
39020;SDS011;25188;51.958;5.842;2023-10-31T03:36:06;23.48;;;15.60;;
39020;SDS011;25188;51.958;5.842;2023-10-31T03:38:33;21.42;;;15.05;;
39020;SDS011;25188;51.958;5.842;2023-10-31T03:41:00;23.50;;;14.75;;
39020;SDS011;25188;51.958;5.842;2023-10-31T03:43:26;24.52;;;14.25;;
39020;SDS011;25188;51.958;5.842;2023-10-31T03:45:52;20.23;;;13.85;;
39020;SDS011;25188;51.958;5.842;2023-10-31T03:48:18;21.40;;;13.45;;
39020;SDS011;25188;51.958;5.842;2023-10-31T03:50:43;18.08;;;12.52;;
39020;SDS011;25188;51.958;5.842;2023-10-31T03:53:09;18.88;;;12.82;;
39020;SDS011;25188;51.958;5.842;2023-10-31T03:55:35;15.73;;;10.90;;
39020;SDS011;25188;51.958;5.842;2023-10-31T03:58:01;16.25;;;9.93;;
39020;SDS011;25188;51.958;5.842;2023-10-31T04:00:27;18.23;;;11.00;;
39020;SDS011;25188;51.958;5.842;2023-10-31T04:02:52;15.88;;;8.80;;
39020;SDS011;25188;51.958;5.842;2023-10-31T04:05:18;15.43;;;9.05;;
39020;SDS011;25188;51.958;5.842;2023-10-31T04:07:45;14.85;;;8.23;;
39020;SDS011;25188;51.958;5.842;2023-10-31T04:10:11;13.20;;;7.82;;
39020;SDS011;25188;51.958;5.842;2023-10-31T04:12:37;16.00;;;7.95;;
39020;SDS011;25188;51.958;5.842;2023-10-31T04:15:03;11.82;;;6.72;;
39020;SDS011;25188;51.958;5.842;2023-10-31T04:17:29;13.70;;;6.43;;
39020;SDS011;25188;51.958;5.842;2023-10-31T04:19:55;12.43;;;6.57;;
39020;SDS011;25188;51.958;5.842;2023-10-31T04:22:21;10.40;;;5.90;;
39020;SDS011;25188;51.958;5.842;2023-10-31T04:24:47;11.88;;;5.70;;
39020;SDS011;25188;51.958;5.842;2023-10-31T04:27:12;12.20;;;5.68;;
39020;SDS011;25188;51.958;5.842;2023-10-31T04:29:38;8.25;;;4.20;;
39020;SDS011;25188;51.958;5.842;2023-10-31T04:32:04;8.30;;;4.65;;
39020;SDS011;25188;51.958;5.842;2023-10-31T04:34:29;8.45;;;4.40;;
39020;SDS011;25188;51.958;5.842;2023-10-31T04:36:55;9.70;;;4.63;;
39020;SDS011;25188;51.958;5.842;2023-10-31T04:39:21;10.30;;;5.07;;
39020;SDS011;25188;51.958;5.842;2023-10-31T04:41:46;9.70;;;4.40;;
39020;SDS011;25188;51.958;5.842;2023-10-31T04:44:12;9.88;;;4.90;;
39020;SDS011;25188;51.958;5.842;2023-10-31T04:46:38;13.00;;;5.82;;
39020;SDS011;25188;51.958;5.842;2023-10-31T04:49:04;12.10;;;5.03;;
39020;SDS011;25188;51.958;5.842;2023-10-31T04:51:37;11.63;;;6.00;;
39020;SDS011;25188;51.958;5.842;2023-10-31T04:54:03;11.45;;;6.45;;
39020;SDS011;25188;51.958;5.842;2023-10-31T04:56:29;12.40;;;6.45;;
39020;SDS011;25188;51.958;5.842;2023-10-31T04:58:55;13.30;;;7.40;;
39020;SDS011;25188;51.958;5.842;2023-10-31T05:01:21;13.50;;;7.35;;
39020;SDS011;25188;51.958;5.842;2023-10-31T05:03:46;15.57;;;8.38;;
39020;SDS011;25188;51.958;5.842;2023-10-31T05:06:12;15.25;;;8.52;;
39020;SDS011;25188;51.958;5.842;2023-10-31T05:08:38;14.73;;;8.00;;
39020;SDS011;25188;51.958;5.842;2023-10-31T05:11:03;15.77;;;9.23;;
39020;SDS011;25188;51.958;5.842;2023-10-31T05:13:29;15.23;;;8.55;;
39020;SDS011;25188;51.958;5.842;2023-10-31T05:15:55;18.00;;;9.50;;
39020;SDS011;25188;51.958;5.842;2023-10-31T05:18:20;13.85;;;8.30;;
39020;SDS011;25188;51.958;5.842;2023-10-31T05:20:46;16.80;;;8.25;;
39020;SDS011;25188;51.958;5.842;2023-10-31T05:23:12;15.57;;;9.77;;
39020;SDS011;25188;51.958;5.842;2023-10-31T05:25:38;16.08;;;8.68;;
39020;SDS011;25188;51.958;5.842;2023-10-31T05:28:04;13.32;;;8.30;;
39020;SDS011;25188;51.958;5.842;2023-10-31T05:30:30;14.20;;;7.88;;
39020;SDS011;25188;51.958;5.842;2023-10-31T05:32:56;12.70;;;8.03;;
39020;SDS011;25188;51.958;5.842;2023-10-31T05:35:21;14.32;;;8.07;;
39020;SDS011;25188;51.958;5.842;2023-10-31T05:37:47;13.55;;;7.07;;
39020;SDS011;25188;51.958;5.842;2023-10-31T05:40:14;11.85;;;6.47;;
39020;SDS011;25188;51.958;5.842;2023-10-31T05:42:41;14.35;;;7.80;;
39020;SDS011;25188;51.958;5.842;2023-10-31T05:45:06;13.38;;;5.35;;
39020;SDS011;25188;51.958;5.842;2023-10-31T05:47:32;11.48;;;5.90;;
39020;SDS011;25188;51.958;5.842;2023-10-31T05:49:58;10.45;;;5.63;;
39020;SDS011;25188;51.958;5.842;2023-10-31T05:52:27;11.45;;;5.35;;
39020;SDS011;25188;51.958;5.842;2023-10-31T05:54:54;8.95;;;4.05;;
39020;SDS011;25188;51.958;5.842;2023-10-31T05:57:20;7.60;;;3.97;;
39020;SDS011;25188;51.958;5.842;2023-10-31T05:59:46;8.55;;;3.40;;
39020;SDS011;25188;51.958;5.842;2023-10-31T06:02:13;7.60;;;2.95;;
39020;SDS011;25188;51.958;5.842;2023-10-31T06:04:39;8.70;;;2.80;;
39020;SDS011;25188;51.958;5.842;2023-10-31T06:07:04;8.05;;;3.33;;
39020;SDS011;25188;51.958;5.842;2023-10-31T06:09:31;8.02;;;2.95;;
39020;SDS011;25188;51.958;5.842;2023-10-31T06:11:58;5.93;;;2.20;;
39020;SDS011;25188;51.958;5.842;2023-10-31T06:14:24;6.25;;;2.80;;
39020;SDS011;25188;51.958;5.842;2023-10-31T06:16:50;5.80;;;2.10;;
39020;SDS011;25188;51.958;5.842;2023-10-31T06:19:16;6.15;;;1.80;;
39020;SDS011;25188;51.958;5.842;2023-10-31T06:21:42;6.47;;;2.40;;
39020;SDS011;25188;51.958;5.842;2023-10-31T06:24:07;7.40;;;2.28;;
39020;SDS011;25188;51.958;5.842;2023-10-31T06:26:34;8.75;;;2.00;;
39020;SDS011;25188;51.958;5.842;2023-10-31T06:28:59;4.30;;;1.45;;
39020;SDS011;25188;51.958;5.842;2023-10-31T06:31:25;4.55;;;1.80;;
39020;SDS011;25188;51.958;5.842;2023-10-31T06:33:50;4.85;;;1.98;;
39020;SDS011;25188;51.958;5.842;2023-10-31T06:36:16;3.67;;;1.50;;
39020;SDS011;25188;51.958;5.842;2023-10-31T06:38:42;4.85;;;1.70;;
39020;SDS011;25188;51.958;5.842;2023-10-31T06:41:07;5.53;;;1.85;;
39020;SDS011;25188;51.958;5.842;2023-10-31T06:43:33;7.30;;;2.60;;
39020;SDS011;25188;51.958;5.842;2023-10-31T06:45:59;6.95;;;2.15;;
39020;SDS011;25188;51.958;5.842;2023-10-31T06:48:27;6.82;;;2.67;;
39020;SDS011;25188;51.958;5.842;2023-10-31T06:50:53;7.85;;;3.65;;
39020;SDS011;25188;51.958;5.842;2023-10-31T06:53:18;10.68;;;4.60;;
39020;SDS011;25188;51.958;5.842;2023-10-31T06:55:44;11.07;;;6.03;;
39020;SDS011;25188;51.958;5.842;2023-10-31T06:58:10;12.48;;;6.00;;
39020;SDS011;25188;51.958;5.842;2023-10-31T07:00:35;9.50;;;5.95;;
39020;SDS011;25188;51.958;5.842;2023-10-31T07:03:02;13.23;;;7.28;;
39020;SDS011;25188;51.958;5.842;2023-10-31T07:05:31;15.57;;;7.68;;
39020;SDS011;25188;51.958;5.842;2023-10-31T07:07:57;13.90;;;7.70;;
39020;SDS011;25188;51.958;5.842;2023-10-31T07:10:23;15.70;;;8.18;;
39020;SDS011;25188;51.958;5.842;2023-10-31T07:12:48;16.35;;;8.68;;
39020;SDS011;25188;51.958;5.842;2023-10-31T07:15:14;17.55;;;8.23;;
39020;SDS011;25188;51.958;5.842;2023-10-31T07:17:40;15.38;;;8.48;;
39020;SDS011;25188;51.958;5.842;2023-10-31T07:20:05;13.13;;;8.00;;
39020;SDS011;25188;51.958;5.842;2023-10-31T07:22:32;16.48;;;8.68;;
39020;SDS011;25188;51.958;5.842;2023-10-31T07:24:59;20.30;;;11.45;;
39020;SDS011;25188;51.958;5.842;2023-10-31T07:27:27;18.95;;;10.85;;
39020;SDS011;25188;51.958;5.842;2023-10-31T07:29:53;20.55;;;12.48;;
39020;SDS011;25188;51.958;5.842;2023-10-31T07:32:19;23.45;;;12.82;;
39020;SDS011;25188;51.958;5.842;2023-10-31T07:34:45;22.17;;;12.52;;
39020;SDS011;25188;51.958;5.842;2023-10-31T07:37:10;21.08;;;13.15;;
39020;SDS011;25188;51.958;5.842;2023-10-31T07:39:36;23.10;;;14.10;;
39020;SDS011;25188;51.958;5.842;2023-10-31T07:42:02;21.77;;;13.10;;
39020;SDS011;25188;51.958;5.842;2023-10-31T07:44:27;21.75;;;13.15;;
39020;SDS011;25188;51.958;5.842;2023-10-31T07:46:53;23.20;;;14.38;;
39020;SDS011;25188;51.958;5.842;2023-10-31T07:49:19;21.52;;;14.57;;
39020;SDS011;25188;51.958;5.842;2023-10-31T07:51:45;22.25;;;13.82;;
39020;SDS011;25188;51.958;5.842;2023-10-31T07:54:13;23.35;;;15.40;;
39020;SDS011;25188;51.958;5.842;2023-10-31T07:56:39;22.17;;;14.85;;
39020;SDS011;25188;51.958;5.842;2023-10-31T07:59:05;21.38;;;13.95;;
39020;SDS011;25188;51.958;5.842;2023-10-31T08:01:32;24.65;;;14.55;;
39020;SDS011;25188;51.958;5.842;2023-10-31T08:03:58;22.77;;;14.50;;
39020;SDS011;25188;51.958;5.842;2023-10-31T08:06:24;24.38;;;16.52;;
39020;SDS011;25188;51.958;5.842;2023-10-31T08:08:50;25.70;;;15.60;;
39020;SDS011;25188;51.958;5.842;2023-10-31T08:11:16;24.10;;;15.43;;
39020;SDS011;25188;51.958;5.842;2023-10-31T08:13:41;21.02;;;14.20;;
39020;SDS011;25188;51.958;5.842;2023-10-31T08:16:08;23.50;;;15.65;;
39020;SDS011;25188;51.958;5.842;2023-10-31T08:18:34;19.27;;;13.90;;
39020;SDS011;25188;51.958;5.842;2023-10-31T08:21:00;22.17;;;14.45;;
39020;SDS011;25188;51.958;5.842;2023-10-31T08:23:27;17.63;;;11.90;;
39020;SDS011;25188;51.958;5.842;2023-10-31T08:25:54;21.38;;;13.80;;
39020;SDS011;25188;51.958;5.842;2023-10-31T08:28:19;18.65;;;11.75;;
39020;SDS011;25188;51.958;5.842;2023-10-31T08:30:45;18.08;;;12.02;;
39020;SDS011;25188;51.958;5.842;2023-10-31T08:33:11;15.95;;;9.60;;
39020;SDS011;25188;51.958;5.842;2023-10-31T08:35:37;14.93;;;9.75;;
39020;SDS011;25188;51.958;5.842;2023-10-31T08:38:03;12.73;;;8.27;;
39020;SDS011;25188;51.958;5.842;2023-10-31T08:40:29;15.63;;;9.25;;
39020;SDS011;25188;51.958;5.842;2023-10-31T08:42:54;13.23;;;8.90;;
39020;SDS011;25188;51.958;5.842;2023-10-31T08:45:20;16.00;;;8.10;;
39020;SDS011;25188;51.958;5.842;2023-10-31T08:47:46;14.85;;;8.18;;
39020;SDS011;25188;51.958;5.842;2023-10-31T08:50:12;12.77;;;7.68;;
39020;SDS011;25188;51.958;5.842;2023-10-31T08:52:38;11.43;;;6.20;;
39020;SDS011;25188;51.958;5.842;2023-10-31T08:55:04;13.82;;;6.75;;
39020;SDS011;25188;51.958;5.842;2023-10-31T08:57:31;12.15;;;6.93;;
39020;SDS011;25188;51.958;5.842;2023-10-31T08:59:58;12.07;;;6.15;;
39020;SDS011;25188;51.958;5.842;2023-10-31T09:02:24;14.43;;;6.72;;
39020;SDS011;25188;51.958;5.842;2023-10-31T09:04:50;12.05;;;5.50;;
39020;SDS011;25188;51.958;5.842;2023-10-31T09:07:15;11.80;;;5.63;;
39020;SDS011;25188;51.958;5.842;2023-10-31T09:09:41;12.32;;;6.28;;
39020;SDS011;25188;51.958;5.842;2023-10-31T09:12:07;10.10;;;5.32;;
39020;SDS011;25188;51.958;5.842;2023-10-31T09:14:33;11.73;;;6.72;;
39020;SDS011;25188;51.958;5.842;2023-10-31T09:17:01;10.70;;;5.32;;
39020;SDS011;25188;51.958;5.842;2023-10-31T09:19:27;13.55;;;6.95;;
39020;SDS011;25188;51.958;5.842;2023-10-31T09:21:55;13.10;;;5.90;;
39020;SDS011;25188;51.958;5.842;2023-10-31T09:24:20;13.70;;;5.10;;
39020;SDS011;25188;51.958;5.842;2023-10-31T09:26:46;10.75;;;4.38;;
39020;SDS011;25188;51.958;5.842;2023-10-31T09:29:12;12.98;;;4.85;;
39020;SDS011;25188;51.958;5.842;2023-10-31T09:31:38;11.48;;;4.68;;
39020;SDS011;25188;51.958;5.842;2023-10-31T09:34:03;11.55;;;5.57;;
39020;SDS011;25188;51.958;5.842;2023-10-31T09:36:32;9.85;;;5.93;;
39020;SDS011;25188;51.958;5.842;2023-10-31T09:39:02;10.52;;;5.15;;
39020;SDS011;25188;51.958;5.842;2023-10-31T09:41:28;10.85;;;5.47;;
39020;SDS011;25188;51.958;5.842;2023-10-31T09:43:55;10.05;;;5.68;;
39020;SDS011;25188;51.958;5.842;2023-10-31T09:46:21;10.88;;;6.50;;
39020;SDS011;25188;51.958;5.842;2023-10-31T09:48:47;11.70;;;5.82;;
39020;SDS011;25188;51.958;5.842;2023-10-31T09:51:14;8.68;;;4.85;;
39020;SDS011;25188;51.958;5.842;2023-10-31T09:53:39;11.63;;;6.93;;
39020;SDS011;25188;51.958;5.842;2023-10-31T09:56:08;13.68;;;6.82;;
39020;SDS011;25188;51.958;5.842;2023-10-31T09:58:35;9.63;;;6.15;;
39020;SDS011;25188;51.958;5.842;2023-10-31T10:01:01;15.25;;;7.72;;
39020;SDS011;25188;51.958;5.842;2023-10-31T10:03:28;16.95;;;8.15;;
39020;SDS011;25188;51.958;5.842;2023-10-31T10:05:54;14.48;;;7.88;;
39020;SDS011;25188;51.958;5.842;2023-10-31T10:08:20;10.70;;;7.20;;
39020;SDS011;25188;51.958;5.842;2023-10-31T10:10:47;11.50;;;6.68;;
39020;SDS011;25188;51.958;5.842;2023-10-31T10:13:16;10.30;;;6.65;;
39020;SDS011;25188;51.958;5.842;2023-10-31T10:15:43;12.85;;;6.55;;
39020;SDS011;25188;51.958;5.842;2023-10-31T10:18:30;10.15;;;5.82;;
39020;SDS011;25188;51.958;5.842;2023-10-31T10:21:01;11.27;;;5.70;;
39020;SDS011;25188;51.958;5.842;2023-10-31T10:23:28;7.97;;;4.78;;
39020;SDS011;25188;51.958;5.842;2023-10-31T10:25:55;8.60;;;4.47;;
39020;SDS011;25188;51.958;5.842;2023-10-31T10:28:22;7.90;;;4.38;;
39020;SDS011;25188;51.958;5.842;2023-10-31T10:30:49;7.95;;;4.13;;
39020;SDS011;25188;51.958;5.842;2023-10-31T10:33:16;10.45;;;3.42;;
39020;SDS011;25188;51.958;5.842;2023-10-31T10:35:42;9.73;;;3.53;;
39020;SDS011;25188;51.958;5.842;2023-10-31T10:38:12;8.98;;;2.63;;
39020;SDS011;25188;51.958;5.842;2023-10-31T10:40:40;11.13;;;2.90;;
39020;SDS011;25188;51.958;5.842;2023-10-31T10:43:22;6.57;;;2.30;;
39020;SDS011;25188;51.958;5.842;2023-10-31T10:45:55;8.23;;;2.72;;
39020;SDS011;25188;51.958;5.842;2023-10-31T10:48:23;6.45;;;2.58;;
39020;SDS011;25188;51.958;5.842;2023-10-31T10:53:55;6.68;;;2.63;;
39020;SDS011;25188;51.958;5.842;2023-10-31T10:56:28;7.50;;;2.95;;
39020;SDS011;25188;51.958;5.842;2023-10-31T10:59:13;7.60;;;3.22;;
39020;SDS011;25188;51.958;5.842;2023-10-31T11:01:43;6.38;;;2.75;;
39020;SDS011;25188;51.958;5.842;2023-10-31T11:04:11;5.05;;;2.58;;
39020;SDS011;25188;51.958;5.842;2023-10-31T11:06:38;7.57;;;3.08;;
39020;SDS011;25188;51.958;5.842;2023-10-31T11:09:05;8.60;;;3.45;;
39020;SDS011;25188;51.958;5.842;2023-10-31T11:11:32;8.60;;;3.95;;
39020;SDS011;25188;51.958;5.842;2023-10-31T11:13:58;11.60;;;5.40;;
39020;SDS011;25188;51.958;5.842;2023-10-31T11:16:29;7.13;;;4.28;;
39020;SDS011;25188;51.958;5.842;2023-10-31T11:19:00;8.98;;;4.70;;
39020;SDS011;25188;51.958;5.842;2023-10-31T11:21:29;16.80;;;5.13;;
39020;SDS011;25188;51.958;5.842;2023-10-31T11:23:57;10.85;;;5.10;;
39020;SDS011;25188;51.958;5.842;2023-10-31T11:26:27;12.50;;;6.10;;
39020;SDS011;25188;51.958;5.842;2023-10-31T11:29:07;11.32;;;7.95;;
39020;SDS011;25188;51.958;5.842;2023-10-31T11:31:37;11.10;;;8.07;;
39020;SDS011;25188;51.958;5.842;2023-10-31T11:34:03;12.60;;;8.40;;
39020;SDS011;25188;51.958;5.842;2023-10-31T11:36:32;11.13;;;8.40;;
39020;SDS011;25188;51.958;5.842;2023-10-31T11:41:50;12.15;;;6.80;;
39020;SDS011;25188;51.958;5.842;2023-10-31T11:44:22;9.43;;;6.47;;
39020;SDS011;25188;51.958;5.842;2023-10-31T11:46:50;11.63;;;6.97;;
39020;SDS011;25188;51.958;5.842;2023-10-31T11:49:17;13.40;;;7.70;;
39020;SDS011;25188;51.958;5.842;2023-10-31T11:52:13;11.77;;;6.65;;
39020;SDS011;25188;51.958;5.842;2023-10-31T11:54:42;11.15;;;7.80;;
39020;SDS011;25188;51.958;5.842;2023-10-31T11:57:09;11.00;;;7.65;;
39020;SDS011;25188;51.958;5.842;2023-10-31T11:59:36;10.18;;;6.28;;
39020;SDS011;25188;51.958;5.842;2023-10-31T12:02:12;10.50;;;6.88;;
39020;SDS011;25188;51.958;5.842;2023-10-31T12:04:41;12.10;;;7.65;;
39020;SDS011;25188;51.958;5.842;2023-10-31T12:07:06;12.00;;;7.85;;
39020;SDS011;25188;51.958;5.842;2023-10-31T12:09:32;13.00;;;7.47;;
39020;SDS011;25188;51.958;5.842;2023-10-31T12:11:58;13.10;;;7.70;;
39020;SDS011;25188;51.958;5.842;2023-10-31T12:14:24;12.07;;;7.93;;
39020;SDS011;25188;51.958;5.842;2023-10-31T12:16:49;12.93;;;9.02;;
39020;SDS011;25188;51.958;5.842;2023-10-31T12:19:15;14.80;;;9.27;;
39020;SDS011;25188;51.958;5.842;2023-10-31T12:21:41;15.75;;;10.35;;
39020;SDS011;25188;51.958;5.842;2023-10-31T12:24:12;14.55;;;9.90;;
39020;SDS011;25188;51.958;5.842;2023-10-31T12:26:38;16.20;;;10.05;;
39020;SDS011;25188;51.958;5.842;2023-10-31T12:31:45;12.67;;;9.97;;
39020;SDS011;25188;51.958;5.842;2023-10-31T12:34:13;16.70;;;10.43;;
39020;SDS011;25188;51.958;5.842;2023-10-31T12:36:40;15.52;;;10.35;;
39020;SDS011;25188;51.958;5.842;2023-10-31T12:39:12;16.23;;;10.25;;
39020;SDS011;25188;51.958;5.842;2023-10-31T12:41:39;18.08;;;11.25;;
39020;SDS011;25188;51.958;5.842;2023-10-31T12:44:06;17.92;;;12.07;;
39020;SDS011;25188;51.958;5.842;2023-10-31T12:46:39;17.13;;;11.80;;
39020;SDS011;25188;51.958;5.842;2023-10-31T12:49:12;16.27;;;11.43;;
39020;SDS011;25188;51.958;5.842;2023-10-31T12:51:38;18.10;;;11.48;;
39020;SDS011;25188;51.958;5.842;2023-10-31T12:54:31;21.35;;;13.90;;
39020;SDS011;25188;51.958;5.842;2023-10-31T12:57:01;22.85;;;13.63;;
39020;SDS011;25188;51.958;5.842;2023-10-31T12:59:29;25.05;;;13.70;;
39020;SDS011;25188;51.958;5.842;2023-10-31T13:01:55;24.05;;;12.88;;
39020;SDS011;25188;51.958;5.842;2023-10-31T13:04:39;18.55;;;12.57;;
39020;SDS011;25188;51.958;5.842;2023-10-31T13:07:07;18.60;;;12.48;;
39020;SDS011;25188;51.958;5.842;2023-10-31T13:09:33;19.55;;;12.25;;
39020;SDS011;25188;51.958;5.842;2023-10-31T13:12:01;16.15;;;10.65;;
39020;SDS011;25188;51.958;5.842;2023-10-31T13:14:31;18.00;;;11.00;;
39020;SDS011;25188;51.958;5.842;2023-10-31T13:16:57;19.67;;;13.10;;
39020;SDS011;25188;51.958;5.842;2023-10-31T13:19:24;19.25;;;13.63;;
39020;SDS011;25188;51.958;5.842;2023-10-31T13:21:49;18.58;;;13.30;;
39020;SDS011;25188;51.958;5.842;2023-10-31T13:24:16;18.58;;;12.57;;
39020;SDS011;25188;51.958;5.842;2023-10-31T13:26:42;15.73;;;10.43;;
39020;SDS011;25188;51.958;5.842;2023-10-31T13:29:09;16.42;;;10.52;;
39020;SDS011;25188;51.958;5.842;2023-10-31T13:31:35;16.42;;;11.48;;
39020;SDS011;25188;51.958;5.842;2023-10-31T13:34:01;15.20;;;10.27;;
39020;SDS011;25188;51.958;5.842;2023-10-31T13:36:27;16.33;;;10.45;;
39020;SDS011;25188;51.958;5.842;2023-10-31T13:38:52;15.60;;;10.52;;
39020;SDS011;25188;51.958;5.842;2023-10-31T13:41:18;23.27;;;12.98;;
39020;SDS011;25188;51.958;5.842;2023-10-31T13:43:43;20.10;;;13.25;;
39020;SDS011;25188;51.958;5.842;2023-10-31T13:46:09;17.63;;;11.20;;
39020;SDS011;25188;51.958;5.842;2023-10-31T13:48:35;16.88;;;10.95;;
39020;SDS011;25188;51.958;5.842;2023-10-31T13:51:01;14.10;;;9.98;;
39020;SDS011;25188;51.958;5.842;2023-10-31T13:53:26;15.85;;;10.38;;
39020;SDS011;25188;51.958;5.842;2023-10-31T13:55:52;16.77;;;11.75;;
39020;SDS011;25188;51.958;5.842;2023-10-31T13:58:18;16.83;;;10.35;;
39020;SDS011;25188;51.958;5.842;2023-10-31T14:00:45;15.73;;;10.10;;
39020;SDS011;25188;51.958;5.842;2023-10-31T14:03:11;16.58;;;10.52;;
39020;SDS011;25188;51.958;5.842;2023-10-31T14:05:37;15.93;;;10.63;;
39020;SDS011;25188;51.958;5.842;2023-10-31T14:08:03;16.02;;;10.02;;
39020;SDS011;25188;51.958;5.842;2023-10-31T14:10:31;17.50;;;11.68;;
39020;SDS011;25188;51.958;5.842;2023-10-31T14:12:56;17.13;;;11.55;;
39020;SDS011;25188;51.958;5.842;2023-10-31T14:15:22;14.23;;;9.82;;
39020;SDS011;25188;51.958;5.842;2023-10-31T14:17:48;18.30;;;12.10;;
39020;SDS011;25188;51.958;5.842;2023-10-31T14:20:15;15.90;;;10.57;;
39020;SDS011;25188;51.958;5.842;2023-10-31T14:22:46;18.02;;;11.25;;
39020;SDS011;25188;51.958;5.842;2023-10-31T14:25:15;14.18;;;10.60;;
39020;SDS011;25188;51.958;5.842;2023-10-31T14:27:41;14.68;;;9.98;;
39020;SDS011;25188;51.958;5.842;2023-10-31T14:30:08;13.85;;;9.82;;
39020;SDS011;25188;51.958;5.842;2023-10-31T14:32:37;14.38;;;9.45;;
39020;SDS011;25188;51.958;5.842;2023-10-31T14:35:04;16.83;;;9.48;;
39020;SDS011;25188;51.958;5.842;2023-10-31T14:37:30;16.85;;;9.75;;
39020;SDS011;25188;51.958;5.842;2023-10-31T14:39:55;13.18;;;9.10;;